KMSYKPRN

Guest
Details From KMSY - Louis Armstrong New Orleans Intl
To KPRN - MAC CRENSHAW MEM
Flight Number -
Tags generated
Created
Modified
Stats Distance 220 nm / 407 km
Max Altitude 25,900 ft / 7,894 m
Waypoints 4
Social Downloads 0
Likes 0
Share VATSIM

Download

Looking for another format? Having issues loading an existing format? Contact us
Advertisement - Login to hide

Notes

Basic altitude profile: - Ascent Rate: 700ft/min - Ascent Speed: 70kts - Cruise Altitude: 7000ft - Cruise Speed: 100kts - Descent Rate: 700ft/min - Descent Speed: 105kts Options: - Use NATs: no - Use PACOTS: no - Use low airways: yes - Use high airways: no

Route

KMSY WIGGO V70 GCV KPRN

ID Type Via Altitude Latitude Longitude Leg Dist Tot Dist Heading (true) Name
O KMSY APT - 0 ft / 0 m 29.99335˚ -90.25741˚ - 0 nm - Louis Armstrong New Orleans Intl
WIGGO FIX - 25,900 ft / 7,894 m 30.79038˚ -89.20422˚ 72 nm 72 nm 48° / 49° -
GCV DME V70 (AWY-LO) 17,000 ft / 5,182 m 31.09796˚ -88.48613˚ 41 nm 113 nm 63° / 64° GREENE CO VORTAC
O KPRN APT - 0 ft / 0 m 31.84569˚ -86.61074˚ 106 nm 219 nm 64° / 65° MAC CRENSHAW MEM

Altitude Profile

Advertisement - Login to hide

Weather


0- 5 10 15 20 25 30 35+ Temperature / ° C

Clouds and Precipitation
Forecast for 2018-05-20 18:00 UTC. Updated an hour ago

Ground ~20,000 ft ~40,000 ft Winds

KMSY

Details ICAO KMSY (MSY)
Name Louis Armstrong New Orleans Intl
Region United States
Timezone America/Chicago (UTC-5.0)
Stats Elevation 3 ft / 1 m (AMSL)
Location 29.993349° -90.257406°
Runways 2
Magnetic Variation 0.781° W

METAR

KMSY 201553Z COR VRB06KT 9SM SCT024 31/21 A3007 RMK AO2 SLP185 T03060206 $

Decode

TAF

KMSY 201123Z 2012/2118 15005KT P6SM FEW025 FEW250 FM201600 11006KT P6SM FEW020 SCT250 FM202100 12006KT P6SM VCTS FEW040CB SCT250 FM210300 00000KT P6SM FEW010 SCT250

Decode

Departure Runways

ID Width Length Bearing (true) Bearing (mag) Surface Threshold Offset Overrun Length
01 150 ft / 46 m 7,021 ft / 2,140 m 15.41° 16.19° Concrete 0 ft / 0 m 600 ft / 183 m
10 150 ft / 46 m 10,090 ft / 3,075 m 105.55° 106.33° Concrete 0 ft / 0 m 400 ft / 122 m
19 150 ft / 46 m 7,021 ft / 2,140 m 195.41° 196.19° Concrete 0 ft / 0 m 600 ft / 183 m
28 150 ft / 46 m 10,090 ft / 3,075 m 285.57° 286.35° Concrete 305 ft / 93 m 249 ft / 76 m

KPRN

Details ICAO KPRN
Name MAC CRENSHAW MEM
Region United States
Timezone America/Chicago (UTC-5.0)
Stats Elevation 451 ft / 137 m (AMSL)
Location 31.845695° -86.610737°
Runways 1
Magnetic Variation 3.409° W

METAR

KPRN 201556Z AUTO 04004KT 10SM CLR 29/20 A3011 RMK AO2 SLP188 T02940200

Decode

TAF

Not found

Destination Runways

ID Width Length Bearing (true) Bearing (mag) Surface Threshold Offset Overrun Length
14 80 ft / 24 m 5,506 ft / 1,678 m 139.81° 143.22° Asphalt 0 ft / 0 m 0 ft / 0 m
32 80 ft / 24 m 5,506 ft / 1,678 m 319.81° 323.22° Asphalt 300 ft / 91 m 0 ft / 0 m